sensor_id;sensor_type;location;lat;lon;timestamp;temperature;humidity
14735;DHT22;7458;49.002;8.472;2023-03-20T00:01:41;10.90;99.90
14735;DHT22;7458;49.002;8.472;2023-03-20T00:04:09;10.90;99.90
14735;DHT22;7458;49.002;8.472;2023-03-20T00:06:36;10.90;99.90
14735;DHT22;7458;49.002;8.472;2023-03-20T00:09:02;10.90;99.90
14735;DHT22;7458;49.002;8.472;2023-03-20T00:11:31;10.90;99.90
14735;DHT22;7458;49.002;8.472;2023-03-20T00:13:59;10.90;99.90
14735;DHT22;7458;49.002;8.472;2023-03-20T00:16:33;10.80;99.90
14735;DHT22;7458;49.002;8.472;2023-03-20T00:19:01;10.70;99.90
14735;DHT22;7458;49.002;8.472;2023-03-20T00:21:29;10.70;99.90
14735;DHT22;7458;49.002;8.472;2023-03-20T00:23:56;10.70;99.90
14735;DHT22;7458;49.002;8.472;2023-03-20T00:26:25;10.60;99.90
14735;DHT22;7458;49.002;8.472;2023-03-20T00:28:55;10.60;99.90
14735;DHT22;7458;49.002;8.472;2023-03-20T00:31:35;10.70;99.90
14735;DHT22;7458;49.002;8.472;2023-03-20T00:34:05;10.70;99.90
14735;DHT22;7458;49.002;8.472;2023-03-20T00:36:36;10.70;99.90
14735;DHT22;7458;49.002;8.472;2023-03-20T00:39:02;10.70;99.90
14735;DHT22;7458;49.002;8.472;2023-03-20T00:41:32;10.70;99.90
14735;DHT22;7458;49.002;8.472;2023-03-20T00:47:16;10.70;99.90
14735;DHT22;7458;49.002;8.472;2023-03-20T00:49:46;10.80;99.90
14735;DHT22;7458;49.002;8.472;2023-03-20T00:52:16;10.80;99.90
14735;DHT22;7458;49.002;8.472;2023-03-20T00:54:42;10.70;99.90
14735;DHT22;7458;49.002;8.472;2023-03-20T00:57:20;10.70;99.90
14735;DHT22;7458;49.002;8.472;2023-03-20T00:59:58;10.70;99.90
14735;DHT22;7458;49.002;8.472;2023-03-20T01:02:35;10.70;99.90
14735;DHT22;7458;49.002;8.472;2023-03-20T01:05:06;10.70;99.90
14735;DHT22;7458;49.002;8.472;2023-03-20T01:07:32;10.70;99.90
14735;DHT22;7458;49.002;8.472;2023-03-20T01:09:58;10.70;99.90
14735;DHT22;7458;49.002;8.472;2023-03-20T01:12:24;10.60;99.90
14735;DHT22;7458;49.002;8.472;2023-03-20T01:14:54;10.70;99.90
14735;DHT22;7458;49.002;8.472;2023-03-20T01:17:22;10.60;99.90
14735;DHT22;7458;49.002;8.472;2023-03-20T01:19:50;10.60;99.90
14735;DHT22;7458;49.002;8.472;2023-03-20T01:22:16;10.60;99.90
14735;DHT22;7458;49.002;8.472;2023-03-20T01:24:45;10.60;99.90
14735;DHT22;7458;49.002;8.472;2023-03-20T01:27:16;10.70;99.90
14735;DHT22;7458;49.002;8.472;2023-03-20T01:29:44;10.70;99.90
14735;DHT22;7458;49.002;8.472;2023-03-20T01:32:13;10.70;99.90
14735;DHT22;7458;49.002;8.472;2023-03-20T01:34:41;10.70;99.90
14735;DHT22;7458;49.002;8.472;2023-03-20T01:37:11;10.70;99.90
14735;DHT22;7458;49.002;8.472;2023-03-20T01:39:42;10.70;99.90
14735;DHT22;7458;49.002;8.472;2023-03-20T01:42:09;10.70;99.90
14735;DHT22;7458;49.002;8.472;2023-03-20T01:44:38;10.80;99.90
14735;DHT22;7458;49.002;8.472;2023-03-20T01:47:14;10.80;99.90
14735;DHT22;7458;49.002;8.472;2023-03-20T01:50:18;10.70;99.90
14735;DHT22;7458;49.002;8.472;2023-03-20T01:52:51;10.70;99.90
14735;DHT22;7458;49.002;8.472;2023-03-20T01:55:31;10.70;99.90
14735;DHT22;7458;49.002;8.472;2023-03-20T01:57:59;10.70;99.90
14735;DHT22;7458;49.002;8.472;2023-03-20T02:00:31;10.80;99.90
14735;DHT22;7458;49.002;8.472;2023-03-20T02:02:57;10.80;99.90
14735;DHT22;7458;49.002;8.472;2023-03-20T02:05:24;10.80;99.90
14735;DHT22;7458;49.002;8.472;2023-03-20T02:08:11;10.80;99.90
14735;DHT22;7458;49.002;8.472;2023-03-20T02:10:44;10.80;99.90
14735;DHT22;7458;49.002;8.472;2023-03-20T02:13:11;10.80;99.90
14735;DHT22;7458;49.002;8.472;2023-03-20T02:18:32;10.80;99.90
14735;DHT22;7458;49.002;8.472;2023-03-20T02:41:38;10.80;99.90
14735;DHT22;7458;49.002;8.472;2023-03-20T02:44:39;10.80;99.90
14735;DHT22;7458;49.002;8.472;2023-03-20T02:47:39;10.80;99.90
14735;DHT22;7458;49.002;8.472;2023-03-20T02:53:08;10.80;99.90
14735;DHT22;7458;49.002;8.472;2023-03-20T03:02:04;10.80;99.90
14735;DHT22;7458;49.002;8.472;2023-03-20T03:04:43;10.90;99.90
14735;DHT22;7458;49.002;8.472;2023-03-20T03:07:19;10.80;99.90
14735;DHT22;7458;49.002;8.472;2023-03-20T03:10:12;10.90;99.90
14735;DHT22;7458;49.002;8.472;2023-03-20T03:12:43;10.90;99.90
14735;DHT22;7458;49.002;8.472;2023-03-20T03:15:28;10.90;99.90
14735;DHT22;7458;49.002;8.472;2023-03-20T03:17:59;10.90;99.90
14735;DHT22;7458;49.002;8.472;2023-03-20T03:20:29;10.90;99.90
14735;DHT22;7458;49.002;8.472;2023-03-20T03:22:58;10.90;99.90
14735;DHT22;7458;49.002;8.472;2023-03-20T03:25:28;10.90;99.90
14735;DHT22;7458;49.002;8.472;2023-03-20T03:30:49;10.90;99.90
14735;DHT22;7458;49.002;8.472;2023-03-20T03:33:25;10.80;99.90
14735;DHT22;7458;49.002;8.472;2023-03-20T03:39:16;10.80;99.90
14735;DHT22;7458;49.002;8.472;2023-03-20T03:45:05;9.20;99.90
14735;DHT22;7458;49.002;8.472;2023-03-20T03:47:51;10.90;99.90
14735;DHT22;7458;49.002;8.472;2023-03-20T03:50:43;10.80;99.90
14735;DHT22;7458;49.002;8.472;2023-03-20T03:53:17;10.80;99.90
14735;DHT22;7458;49.002;8.472;2023-03-20T03:56:06;10.80;99.90
14735;DHT22;7458;49.002;8.472;2023-03-20T03:58:53;10.80;99.90
14735;DHT22;7458;49.002;8.472;2023-03-20T04:01:25;10.80;99.90
14735;DHT22;7458;49.002;8.472;2023-03-20T04:03:56;10.70;99.90
14735;DHT22;7458;49.002;8.472;2023-03-20T04:06:28;10.70;99.90
14735;DHT22;7458;49.002;8.472;2023-03-20T04:08:54;10.70;99.90
14735;DHT22;7458;49.002;8.472;2023-03-20T04:11:25;10.70;99.90
14735;DHT22;7458;49.002;8.472;2023-03-20T04:13:53;10.60;99.90
14735;DHT22;7458;49.002;8.472;2023-03-20T04:16:22;10.70;99.90
14735;DHT22;7458;49.002;8.472;2023-03-20T04:18:49;10.70;99.90
14735;DHT22;7458;49.002;8.472;2023-03-20T04:21:15;10.80;99.90
14735;DHT22;7458;49.002;8.472;2023-03-20T04:23:41;10.70;99.90
14735;DHT22;7458;49.002;8.472;2023-03-20T04:26:07;10.70;99.90
14735;DHT22;7458;49.002;8.472;2023-03-20T04:28:33;10.70;99.90
14735;DHT22;7458;49.002;8.472;2023-03-20T04:31:00;10.70;99.90
14735;DHT22;7458;49.002;8.472;2023-03-20T04:33:27;10.70;99.90
14735;DHT22;7458;49.002;8.472;2023-03-20T04:35:54;10.70;99.90
14735;DHT22;7458;49.002;8.472;2023-03-20T04:38:21;10.70;99.90
14735;DHT22;7458;49.002;8.472;2023-03-20T04:40:48;10.70;99.90
14735;DHT22;7458;49.002;8.472;2023-03-20T04:43:14;10.60;99.90
14735;DHT22;7458;49.002;8.472;2023-03-20T04:45:41;10.50;99.90
14735;DHT22;7458;49.002;8.472;2023-03-20T04:48:07;10.60;99.90
14735;DHT22;7458;49.002;8.472;2023-03-20T04:50:33;10.60;99.90
14735;DHT22;7458;49.002;8.472;2023-03-20T04:52:59;10.60;99.90
14735;DHT22;7458;49.002;8.472;2023-03-20T04:55:25;10.50;99.90
14735;DHT22;7458;49.002;8.472;2023-03-20T04:57:51;10.40;99.90
14735;DHT22;7458;49.002;8.472;2023-03-20T05:00:17;10.40;99.90
14735;DHT22;7458;49.002;8.472;2023-03-20T05:02:43;10.40;99.90
14735;DHT22;7458;49.002;8.472;2023-03-20T05:05:10;10.50;99.90
14735;DHT22;7458;49.002;8.472;2023-03-20T05:07:35;10.40;99.90
14735;DHT22;7458;49.002;8.472;2023-03-20T05:10:02;10.50;99.90
14735;DHT22;7458;49.002;8.472;2023-03-20T05:12:29;10.50;99.90
14735;DHT22;7458;49.002;8.472;2023-03-20T05:14:55;10.50;99.90
14735;DHT22;7458;49.002;8.472;2023-03-20T05:17:21;10.50;99.90
14735;DHT22;7458;49.002;8.472;2023-03-20T05:19:48;10.50;99.90
14735;DHT22;7458;49.002;8.472;2023-03-20T05:22:15;10.50;99.90
14735;DHT22;7458;49.002;8.472;2023-03-20T05:24:41;10.50;99.90
14735;DHT22;7458;49.002;8.472;2023-03-20T05:27:07;10.50;99.90
14735;DHT22;7458;49.002;8.472;2023-03-20T05:29:33;10.40;99.90
14735;DHT22;7458;49.002;8.472;2023-03-20T05:31:59;10.50;99.90
14735;DHT22;7458;49.002;8.472;2023-03-20T05:34:25;10.50;99.90
14735;DHT22;7458;49.002;8.472;2023-03-20T05:36:52;10.50;99.90
14735;DHT22;7458;49.002;8.472;2023-03-20T05:39:18;10.50;99.90
14735;DHT22;7458;49.002;8.472;2023-03-20T05:41:44;10.50;99.90
14735;DHT22;7458;49.002;8.472;2023-03-20T05:44:10;10.50;99.90
14735;DHT22;7458;49.002;8.472;2023-03-20T05:46:36;10.50;99.90
14735;DHT22;7458;49.002;8.472;2023-03-20T05:49:01;10.50;99.90
14735;DHT22;7458;49.002;8.472;2023-03-20T05:51:27;10.50;99.90
14735;DHT22;7458;49.002;8.472;2023-03-20T05:53:53;10.50;99.90
14735;DHT22;7458;49.002;8.472;2023-03-20T05:56:19;10.60;99.90
14735;DHT22;7458;49.002;8.472;2023-03-20T05:58:45;10.60;99.90
14735;DHT22;7458;49.002;8.472;2023-03-20T06:01:10;10.60;99.90
14735;DHT22;7458;49.002;8.472;2023-03-20T06:03:36;10.60;99.90
14735;DHT22;7458;49.002;8.472;2023-03-20T06:06:02;10.70;99.90
14735;DHT22;7458;49.002;8.472;2023-03-20T06:08:28;10.80;99.90
14735;DHT22;7458;49.002;8.472;2023-03-20T06:10:57;10.90;99.90
14735;DHT22;7458;49.002;8.472;2023-03-20T06:13:23;11.00;99.90
14735;DHT22;7458;49.002;8.472;2023-03-20T06:15:48;11.20;99.90
14735;DHT22;7458;49.002;8.472;2023-03-20T06:18:14;11.30;99.90
14735;DHT22;7458;49.002;8.472;2023-03-20T06:20:40;11.40;99.90
14735;DHT22;7458;49.002;8.472;2023-03-20T06:23:06;11.50;99.90
14735;DHT22;7458;49.002;8.472;2023-03-20T06:25:31;11.60;99.90
14735;DHT22;7458;49.002;8.472;2023-03-20T06:27:57;11.60;99.90
14735;DHT22;7458;49.002;8.472;2023-03-20T06:30:23;11.70;99.90
14735;DHT22;7458;49.002;8.472;2023-03-20T06:32:49;11.70;99.90
14735;DHT22;7458;49.002;8.472;2023-03-20T06:35:15;11.70;99.90
14735;DHT22;7458;49.002;8.472;2023-03-20T06:37:42;11.60;99.90
14735;DHT22;7458;49.002;8.472;2023-03-20T06:40:08;11.60;99.90
14735;DHT22;7458;49.002;8.472;2023-03-20T06:42:35;11.40;99.90
14735;DHT22;7458;49.002;8.472;2023-03-20T06:45:00;11.40;99.90
14735;DHT22;7458;49.002;8.472;2023-03-20T06:47:26;11.30;99.90
14735;DHT22;7458;49.002;8.472;2023-03-20T06:49:52;11.20;99.90
14735;DHT22;7458;49.002;8.472;2023-03-20T06:52:18;11.20;99.90
14735;DHT22;7458;49.002;8.472;2023-03-20T06:54:46;11.20;99.90
14735;DHT22;7458;49.002;8.472;2023-03-20T06:57:13;11.10;99.90
14735;DHT22;7458;49.002;8.472;2023-03-20T06:59:39;11.00;99.90
14735;DHT22;7458;49.002;8.472;2023-03-20T07:02:05;11.00;99.90
14735;DHT22;7458;49.002;8.472;2023-03-20T07:04:31;11.00;99.90
14735;DHT22;7458;49.002;8.472;2023-03-20T07:06:58;11.00;99.90
14735;DHT22;7458;49.002;8.472;2023-03-20T07:09:23;11.10;99.90
14735;DHT22;7458;49.002;8.472;2023-03-20T07:11:49;11.20;99.90
14735;DHT22;7458;49.002;8.472;2023-03-20T07:14:15;11.30;99.90
14735;DHT22;7458;49.002;8.472;2023-03-20T07:16:41;11.50;99.90
14735;DHT22;7458;49.002;8.472;2023-03-20T07:19:06;11.60;99.90
14735;DHT22;7458;49.002;8.472;2023-03-20T07:21:33;11.60;99.90
14735;DHT22;7458;49.002;8.472;2023-03-20T07:23:59;11.60;99.90
14735;DHT22;7458;49.002;8.472;2023-03-20T07:26:25;12.00;99.90
14735;DHT22;7458;49.002;8.472;2023-03-20T07:28:51;11.80;99.90
14735;DHT22;7458;49.002;8.472;2023-03-20T07:31:25;11.80;99.90
14735;DHT22;7458;49.002;8.472;2023-03-20T07:33:57;11.80;99.90
14735;DHT22;7458;49.002;8.472;2023-03-20T07:36:23;11.80;99.90
14735;DHT22;7458;49.002;8.472;2023-03-20T07:38:48;11.70;99.90
14735;DHT22;7458;49.002;8.472;2023-03-20T07:41:14;11.60;99.90
14735;DHT22;7458;49.002;8.472;2023-03-20T07:43:41;11.60;99.90
14735;DHT22;7458;49.002;8.472;2023-03-20T07:46:07;11.60;99.90
14735;DHT22;7458;49.002;8.472;2023-03-20T07:48:34;11.60;99.90
14735;DHT22;7458;49.002;8.472;2023-03-20T07:51:00;11.80;99.90
14735;DHT22;7458;49.002;8.472;2023-03-20T07:53:26;11.90;99.90
14735;DHT22;7458;49.002;8.472;2023-03-20T07:55:52;12.30;99.90
14735;DHT22;7458;49.002;8.472;2023-03-20T07:58:18;12.60;99.90
14735;DHT22;7458;49.002;8.472;2023-03-20T08:00:44;12.80;99.90
14735;DHT22;7458;49.002;8.472;2023-03-20T08:03:10;13.20;99.90
14735;DHT22;7458;49.002;8.472;2023-03-20T08:05:36;13.60;99.90
14735;DHT22;7458;49.002;8.472;2023-03-20T08:08:02;14.00;99.90
14735;DHT22;7458;49.002;8.472;2023-03-20T08:10:28;14.20;99.90
14735;DHT22;7458;49.002;8.472;2023-03-20T08:12:54;14.30;99.90
14735;DHT22;7458;49.002;8.472;2023-03-20T08:15:20;14.30;99.90
14735;DHT22;7458;49.002;8.472;2023-03-20T08:17:46;14.30;99.90
14735;DHT22;7458;49.002;8.472;2023-03-20T08:20:14;14.30;99.90
14735;DHT22;7458;49.002;8.472;2023-03-20T08:22:42;14.30;99.90
14735;DHT22;7458;49.002;8.472;2023-03-20T08:25:09;14.30;99.90
14735;DHT22;7458;49.002;8.472;2023-03-20T08:27:35;14.30;99.90
14735;DHT22;7458;49.002;8.472;2023-03-20T08:30:03;14.30;99.90
14735;DHT22;7458;49.002;8.472;2023-03-20T08:32:29;14.20;99.90
14735;DHT22;7458;49.002;8.472;2023-03-20T08:34:55;14.30;99.90
14735;DHT22;7458;49.002;8.472;2023-03-20T08:37:21;14.30;99.90
14735;DHT22;7458;49.002;8.472;2023-03-20T08:39:47;14.20;99.90
14735;DHT22;7458;49.002;8.472;2023-03-20T08:42:13;14.10;99.90
14735;DHT22;7458;49.002;8.472;2023-03-20T08:44:39;13.90;99.90
14735;DHT22;7458;49.002;8.472;2023-03-20T08:47:05;13.80;99.90
14735;DHT22;7458;49.002;8.472;2023-03-20T08:49:33;14.00;99.90
14735;DHT22;7458;49.002;8.472;2023-03-20T08:51:59;14.00;99.90
14735;DHT22;7458;49.002;8.472;2023-03-20T08:54:25;14.10;99.90
14735;DHT22;7458;49.002;8.472;2023-03-20T08:56:51;14.20;99.90
14735;DHT22;7458;49.002;8.472;2023-03-20T08:59:17;14.20;99.90
14735;DHT22;7458;49.002;8.472;2023-03-20T09:01:44;14.30;99.90
14735;DHT22;7458;49.002;8.472;2023-03-20T09:04:12;14.50;99.90
14735;DHT22;7458;49.002;8.472;2023-03-20T09:06:39;14.40;99.90
14735;DHT22;7458;49.002;8.472;2023-03-20T09:09:05;14.40;99.90
14735;DHT22;7458;49.002;8.472;2023-03-20T09:11:32;14.40;99.90
14735;DHT22;7458;49.002;8.472;2023-03-20T09:13:58;14.40;99.90
14735;DHT22;7458;49.002;8.472;2023-03-20T09:16:25;14.60;99.90
14735;DHT22;7458;49.002;8.472;2023-03-20T09:18:51;14.70;99.90
14735;DHT22;7458;49.002;8.472;2023-03-20T09:21:17;14.80;99.90
14735;DHT22;7458;49.002;8.472;2023-03-20T09:23:43;14.80;99.90
14735;DHT22;7458;49.002;8.472;2023-03-20T09:26:09;14.70;99.90
14735;DHT22;7458;49.002;8.472;2023-03-20T09:28:34;14.70;99.90
14735;DHT22;7458;49.002;8.472;2023-03-20T09:31:03;14.60;99.90
14735;DHT22;7458;49.002;8.472;2023-03-20T09:33:29;14.50;99.90
14735;DHT22;7458;49.002;8.472;2023-03-20T09:35:55;14.50;99.90
14735;DHT22;7458;49.002;8.472;2023-03-20T09:38:21;14.30;99.90
14735;DHT22;7458;49.002;8.472;2023-03-20T09:40:58;14.30;99.90
14735;DHT22;7458;49.002;8.472;2023-03-20T09:43:27;14.20;99.90
14735;DHT22;7458;49.002;8.472;2023-03-20T09:49:55;14.60;99.90
14735;DHT22;7458;49.002;8.472;2023-03-20T09:52:27;14.60;99.90
14735;DHT22;7458;49.002;8.472;2023-03-20T09:55:24;15.30;99.90
14735;DHT22;7458;49.002;8.472;2023-03-20T09:58:04;15.50;99.90
14735;DHT22;7458;49.002;8.472;2023-03-20T10:00:35;15.60;99.90
14735;DHT22;7458;49.002;8.472;2023-03-20T10:03:08;15.90;99.90
14735;DHT22;7458;49.002;8.472;2023-03-20T10:05:58;16.20;99.90
14735;DHT22;7458;49.002;8.472;2023-03-20T10:08:33;16.90;99.90
14735;DHT22;7458;49.002;8.472;2023-03-20T10:11:16;17.30;99.60
14735;DHT22;7458;49.002;8.472;2023-03-20T10:22:37;17.30;91.70
14735;DHT22;7458;49.002;8.472;2023-03-20T10:25:27;16.70;92.70
14735;DHT22;7458;49.002;8.472;2023-03-20T10:28:02;16.20;93.20
14735;DHT22;7458;49.002;8.472;2023-03-20T10:33:22;16.70;94.80
14735;DHT22;7458;49.002;8.472;2023-03-20T10:39:05;17.00;93.30
14735;DHT22;7458;49.002;8.472;2023-03-20T10:41:36;16.90;92.90
14735;DHT22;7458;49.002;8.472;2023-03-20T10:44:13;16.80;93.00
14735;DHT22;7458;49.002;8.472;2023-03-20T10:46:47;16.80;92.70
14735;DHT22;7458;49.002;8.472;2023-03-20T10:49:37;16.50;93.00
14735;DHT22;7458;49.002;8.472;2023-03-20T10:52:17;16.00;92.50
14735;DHT22;7458;49.002;8.472;2023-03-20T10:54:51;15.80;93.00
14735;DHT22;7458;49.002;8.472;2023-03-20T10:57:30;15.90;93.30
14735;DHT22;7458;49.002;8.472;2023-03-20T11:00:01;16.00;93.10
14735;DHT22;7458;49.002;8.472;2023-03-20T11:02:30;17.00;92.10
14735;DHT22;7458;49.002;8.472;2023-03-20T11:05:01;17.20;90.50
14735;DHT22;7458;49.002;8.472;2023-03-20T11:07:36;17.50;91.10
14735;DHT22;7458;49.002;8.472;2023-03-20T11:12:43;18.00;85.60
14735;DHT22;7458;49.002;8.472;2023-03-20T11:15:26;18.20;83.90
14735;DHT22;7458;49.002;8.472;2023-03-20T11:18:03;18.20;82.60
14735;DHT22;7458;49.002;8.472;2023-03-20T11:20:55;18.50;83.60
14735;DHT22;7458;49.002;8.472;2023-03-20T11:23:33;18.40;80.30
14735;DHT22;7458;49.002;8.472;2023-03-20T11:26:05;18.20;81.90
14735;DHT22;7458;49.002;8.472;2023-03-20T11:34:24;18.20;81.50
14735;DHT22;7458;49.002;8.472;2023-03-20T11:36:46;17.90;82.10
14735;DHT22;7458;49.002;8.472;2023-03-20T11:39:26;17.60;81.80
14735;DHT22;7458;49.002;8.472;2023-03-20T11:41:56;17.30;82.20
14735;DHT22;7458;49.002;8.472;2023-03-20T11:44:28;17.10;81.90
14735;DHT22;7458;49.002;8.472;2023-03-20T11:47:04;17.10;83.30
14735;DHT22;7458;49.002;8.472;2023-03-20T11:49:54;17.20;82.30
14735;DHT22;7458;49.002;8.472;2023-03-20T11:52:38;17.70;82.20
14735;DHT22;7458;49.002;8.472;2023-03-20T11:55:21;17.80;80.50
14735;DHT22;7458;49.002;8.472;2023-03-20T11:57:50;18.00;79.80
14735;DHT22;7458;49.002;8.472;2023-03-20T12:00:37;18.20;79.80
14735;DHT22;7458;49.002;8.472;2023-03-20T12:06:20;19.20;79.30
14735;DHT22;7458;49.002;8.472;2023-03-20T12:09:02;19.00;78.80
14735;DHT22;7458;49.002;8.472;2023-03-20T12:11:46;18.60;75.50
14735;DHT22;7458;49.002;8.472;2023-03-20T12:14:29;18.10;76.40
14735;DHT22;7458;49.002;8.472;2023-03-20T12:20:06;17.80;77.60
14735;DHT22;7458;49.002;8.472;2023-03-20T12:22:49;17.40;78.30
14735;DHT22;7458;49.002;8.472;2023-03-20T12:25:32;17.40;78.50
14735;DHT22;7458;49.002;8.472;2023-03-20T12:31:09;17.40;77.70
14735;DHT22;7458;49.002;8.472;2023-03-20T12:34:18;17.50;77.50
14735;DHT22;7458;49.002;8.472;2023-03-20T12:36:49;17.40;78.80
14735;DHT22;7458;49.002;8.472;2023-03-20T12:39:27;17.30;78.20
14735;DHT22;7458;49.002;8.472;2023-03-20T12:45:03;17.10;78.10
14735;DHT22;7458;49.002;8.472;2023-03-20T12:50:35;16.90;79.10
14735;DHT22;7458;49.002;8.472;2023-03-20T12:59:08;16.90;79.10
14735;DHT22;7458;49.002;8.472;2023-03-20T13:01:57;16.50;76.60
14735;DHT22;7458;49.002;8.472;2023-03-20T13:07:21;17.20;77.20
14735;DHT22;7458;49.002;8.472;2023-03-20T13:10:19;17.10;75.40
14735;DHT22;7458;49.002;8.472;2023-03-20T13:19:02;16.60;77.60
14735;DHT22;7458;49.002;8.472;2023-03-20T13:24:32;16.50;78.50
14735;DHT22;7458;49.002;8.472;2023-03-20T13:33:19;16.40;77.20
14735;DHT22;7458;49.002;8.472;2023-03-20T13:36:07;16.40;76.20
14735;DHT22;7458;49.002;8.472;2023-03-20T13:38:40;16.40;76.60
14735;DHT22;7458;49.002;8.472;2023-03-20T13:41:10;16.50;75.50
14735;DHT22;7458;49.002;8.472;2023-03-20T13:43:48;16.60;74.90
14735;DHT22;7458;49.002;8.472;2023-03-20T13:46:28;16.60;73.70
14735;DHT22;7458;49.002;8.472;2023-03-20T13:49:07;16.80;74.70
14735;DHT22;7458;49.002;8.472;2023-03-20T13:51:54;16.70;72.90
14735;DHT22;7458;49.002;8.472;2023-03-20T13:54:45;16.60;73.50
14735;DHT22;7458;49.002;8.472;2023-03-20T14:03:26;16.70;73.10
14735;DHT22;7458;49.002;8.472;2023-03-20T14:05:56;17.10;79.80
14735;DHT22;7458;49.002;8.472;2023-03-20T14:16:48;16.80;72.60
14735;DHT22;7458;49.002;8.472;2023-03-20T14:19:25;16.90;72.40
14735;DHT22;7458;49.002;8.472;2023-03-20T14:21:55;16.80;71.80
14735;DHT22;7458;49.002;8.472;2023-03-20T14:24:23;16.90;72.60
14735;DHT22;7458;49.002;8.472;2023-03-20T14:26:55;16.80;71.30
14735;DHT22;7458;49.002;8.472;2023-03-20T14:32:23;16.80;72.00
14735;DHT22;7458;49.002;8.472;2023-03-20T14:35:20;16.80;71.80
14735;DHT22;7458;49.002;8.472;2023-03-20T14:40:50;16.60;72.10
14735;DHT22;7458;49.002;8.472;2023-03-20T14:58:47;16.60;73.40
14735;DHT22;7458;49.002;8.472;2023-03-20T15:04:38;16.80;73.10
14735;DHT22;7458;49.002;8.472;2023-03-20T15:07:13;16.90;72.90
14735;DHT22;7458;49.002;8.472;2023-03-20T15:09:44;16.80;72.40
14735;DHT22;7458;49.002;8.472;2023-03-20T15:12:18;16.80;72.00
14735;DHT22;7458;49.002;8.472;2023-03-20T15:14:58;16.70;72.60
14735;DHT22;7458;49.002;8.472;2023-03-20T15:17:42;16.70;72.90
14735;DHT22;7458;49.002;8.472;2023-03-20T15:20:23;16.60;73.10
14735;DHT22;7458;49.002;8.472;2023-03-20T15:22:54;17.00;79.20
14735;DHT22;7458;49.002;8.472;2023-03-20T15:28:15;16.90;73.30
14735;DHT22;7458;49.002;8.472;2023-03-20T15:30:42;16.70;72.80
14735;DHT22;7458;49.002;8.472;2023-03-20T15:33:26;16.50;72.20
14735;DHT22;7458;49.002;8.472;2023-03-20T15:35:55;16.50;73.20
14735;DHT22;7458;49.002;8.472;2023-03-20T15:38:22;16.80;86.20
14735;DHT22;7458;49.002;8.472;2023-03-20T15:40:57;17.10;74.80
14735;DHT22;7458;49.002;8.472;2023-03-20T15:43:25;16.70;71.80
14735;DHT22;7458;49.002;8.472;2023-03-20T15:45:52;16.50;72.80
14735;DHT22;7458;49.002;8.472;2023-03-20T15:48:23;16.60;72.20
14735;DHT22;7458;49.002;8.472;2023-03-20T15:50:59;16.50;73.30
14735;DHT22;7458;49.002;8.472;2023-03-20T15:53:36;16.60;73.60
14735;DHT22;7458;49.002;8.472;2023-03-20T15:56:07;16.50;73.40
14735;DHT22;7458;49.002;8.472;2023-03-20T15:58:36;16.40;72.80
14735;DHT22;7458;49.002;8.472;2023-03-20T16:01:04;16.40;73.30
14735;DHT22;7458;49.002;8.472;2023-03-20T16:03:34;16.40;81.70
14735;DHT22;7458;49.002;8.472;2023-03-20T16:06:03;16.90;83.10
14735;DHT22;7458;49.002;8.472;2023-03-20T16:08:34;16.70;74.30
14735;DHT22;7458;49.002;8.472;2023-03-20T16:11:03;16.40;73.50
14735;DHT22;7458;49.002;8.472;2023-03-20T16:13:37;16.30;75.90
14735;DHT22;7458;49.002;8.472;2023-03-20T16:16:09;16.10;73.60
14735;DHT22;7458;49.002;8.472;2023-03-20T16:18:40;15.90;75.10
14735;DHT22;7458;49.002;8.472;2023-03-20T16:21:13;15.90;74.80
14735;DHT22;7458;49.002;8.472;2023-03-20T16:23:52;15.80;74.90
14735;DHT22;7458;49.002;8.472;2023-03-20T16:26:21;15.80;75.00
14735;DHT22;7458;49.002;8.472;2023-03-20T16:28:58;15.60;74.30
14735;DHT22;7458;49.002;8.472;2023-03-20T16:31:31;15.60;75.10
14735;DHT22;7458;49.002;8.472;2023-03-20T16:34:04;15.50;75.80
14735;DHT22;7458;49.002;8.472;2023-03-20T16:36:35;15.50;75.90
14735;DHT22;7458;49.002;8.472;2023-03-20T16:41:42;15.40;76.80
14735;DHT22;7458;49.002;8.472;2023-03-20T16:47:01;15.20;76.30
14735;DHT22;7458;49.002;8.472;2023-03-20T16:52:25;15.20;77.50
14735;DHT22;7458;49.002;8.472;2023-03-20T16:54:58;15.20;77.90
14735;DHT22;7458;49.002;8.472;2023-03-20T16:57:26;15.20;77.70
14735;DHT22;7458;49.002;8.472;2023-03-20T17:00:02;15.10;77.70
14735;DHT22;7458;49.002;8.472;2023-03-20T17:02:38;15.10;77.70
14735;DHT22;7458;49.002;8.472;2023-03-20T17:05:10;15.10;77.40
14735;DHT22;7458;49.002;8.472;2023-03-20T17:07:38;15.00;77.90
14735;DHT22;7458;49.002;8.472;2023-03-20T17:12:42;15.00;78.20
14735;DHT22;7458;49.002;8.472;2023-03-20T17:15:18;14.90;78.20
14735;DHT22;7458;49.002;8.472;2023-03-20T17:17:46;14.80;78.30
14735;DHT22;7458;49.002;8.472;2023-03-20T17:22:47;14.60;78.80
14735;DHT22;7458;49.002;8.472;2023-03-20T17:25:13;14.50;79.40
14735;DHT22;7458;49.002;8.472;2023-03-20T17:27:40;14.60;79.60
14735;DHT22;7458;49.002;8.472;2023-03-20T17:32:41;14.60;81.50
14735;DHT22;7458;49.002;8.472;2023-03-20T17:35:07;14.70;81.10
14735;DHT22;7458;49.002;8.472;2023-03-20T17:37:33;14.70;80.90
14735;DHT22;7458;49.002;8.472;2023-03-20T17:39:59;14.60;80.30
14735;DHT22;7458;49.002;8.472;2023-03-20T17:42:25;14.60;80.80
14735;DHT22;7458;49.002;8.472;2023-03-20T17:45:00;14.50;80.80
14735;DHT22;7458;49.002;8.472;2023-03-20T17:47:29;14.50;81.20
14735;DHT22;7458;49.002;8.472;2023-03-20T17:49:56;14.50;81.40
14735;DHT22;7458;49.002;8.472;2023-03-20T17:52:24;14.50;81.60
14735;DHT22;7458;49.002;8.472;2023-03-20T17:54:51;14.50;81.60
14735;DHT22;7458;49.002;8.472;2023-03-20T17:57:22;14.50;81.60
14735;DHT22;7458;49.002;8.472;2023-03-20T17:59:58;14.40;81.80
14735;DHT22;7458;49.002;8.472;2023-03-20T18:02:24;14.50;82.30
14735;DHT22;7458;49.002;8.472;2023-03-20T18:04:50;14.50;82.10
14735;DHT22;7458;49.002;8.472;2023-03-20T18:07:17;14.50;82.10
14735;DHT22;7458;49.002;8.472;2023-03-20T18:09:44;14.60;82.20
14735;DHT22;7458;49.002;8.472;2023-03-20T18:12:16;14.50;82.10
14735;DHT22;7458;49.002;8.472;2023-03-20T18:14:44;14.50;81.90
14735;DHT22;7458;49.002;8.472;2023-03-20T18:17:12;14.50;82.00
14735;DHT22;7458;49.002;8.472;2023-03-20T18:19:40;14.50;82.10
14735;DHT22;7458;49.002;8.472;2023-03-20T18:22:06;14.40;82.40
14735;DHT22;7458;49.002;8.472;2023-03-20T18:24:32;14.30;81.80
14735;DHT22;7458;49.002;8.472;2023-03-20T18:26:59;14.40;82.30
14735;DHT22;7458;49.002;8.472;2023-03-20T18:29:25;14.40;82.70
14735;DHT22;7458;49.002;8.472;2023-03-20T18:31:51;14.40;82.50
14735;DHT22;7458;49.002;8.472;2023-03-20T18:34:17;14.30;82.40
14735;DHT22;7458;49.002;8.472;2023-03-20T18:36:43;14.30;83.40
14735;DHT22;7458;49.002;8.472;2023-03-20T18:39:19;14.20;82.60
14735;DHT22;7458;49.002;8.472;2023-03-20T18:41:47;14.20;82.60
14735;DHT22;7458;49.002;8.472;2023-03-20T18:44:12;14.30;82.80
14735;DHT22;7458;49.002;8.472;2023-03-20T18:46:38;14.30;83.00
14735;DHT22;7458;49.002;8.472;2023-03-20T18:49:05;14.20;83.50
14735;DHT22;7458;49.002;8.472;2023-03-20T18:51:31;14.20;83.80
14735;DHT22;7458;49.002;8.472;2023-03-20T18:53:57;14.20;84.20
14735;DHT22;7458;49.002;8.472;2023-03-20T18:56:25;14.20;84.60
14735;DHT22;7458;49.002;8.472;2023-03-20T18:58:51;14.10;85.20